Time;durP1;ratioP1;P1;durP2;ratioP2;P2;SDS_P1;SDS_P2;PMS_P1;PMS_P2;Temp;Humidity;BMP_temperature;BMP_pressure;BME280_temperature;BME280_humidity;BME280_pressure;Samples;Min_cycle;Max_cycle;Signal;HPM_P1;HPM_P2
2023/04/12 00:02:01;;;;;;;24.57;5.67;;;16.30;59.20;;;;;;5099790;28;20227;-93
2023/04/12 00:04:28;;;;;;;26.50;5.47;;;16.30;59.20;;;;;;5099828;28;20202;-89
2023/04/12 00:06:56;;;;;;;24.13;5.37;;;16.30;59.20;;;;;;5098814;28;20215;-92
2023/04/12 00:09:23;;;;;;;27.33;5.77;;;16.20;59.10;;;;;;5098444;28;20199;-94
2023/04/12 00:11:50;;;;;;;26.73;5.83;;;16.20;59.10;;;;;;5096240;27;20232;-93
2023/04/12 00:14:18;;;;;;;59.17;8.50;;;16.20;59.10;;;;;;5091477;28;20284;-88
2023/04/12 00:16:45;;;;;;;34.87;6.33;;;16.20;59.10;;;;;;5095437;28;20204;-88
2023/04/12 00:19:12;;;;;;;29.17;6.13;;;16.20;59.10;;;;;;5098967;28;20195;-89
2023/04/12 00:21:45;;;;;;;21.97;5.73;;;16.20;59.10;;;;;;5096412;28;20278;-91
2023/04/12 00:24:12;;;;;;;39.47;6.80;;;16.30;59.20;;;;;;5092479;28;20211;-90
2023/04/12 00:26:39;;;;;;;38.10;6.77;;;16.20;59.10;;;;;;5107689;28;20211;-88
2023/04/12 00:29:06;;;;;;;41.03;6.90;;;16.20;59.10;;;;;;5106449;28;20219;-92
2023/04/12 00:31:34;;;;;;;26.73;6.03;;;16.20;59.10;;;;;;5108475;28;20206;-91
2023/04/12 00:34:01;;;;;;;30.73;6.13;;;16.20;59.10;;;;;;5093989;28;20201;-89
2023/04/12 00:36:30;;;;;;;23.80;5.57;;;16.10;59.10;;;;;;5105260;28;20235;-88
2023/04/12 00:38:57;;;;;;;50.67;7.43;;;16.20;59.10;;;;;;5102899;28;20687;-89
2023/04/12 00:41:27;;;;;;;32.57;6.70;;;16.10;59.10;;;;;;5107792;28;20206;-88
2023/04/12 00:43:55;;;;;;;26.00;5.43;;;16.10;59.10;;;;;;5107232;28;20212;-89
2023/04/12 00:46:22;;;;;;;61.60;8.77;;;16.20;59.10;;;;;;5105727;28;20694;-89
2023/04/12 00:48:50;;;;;;;19.67;4.93;;;16.10;59.10;;;;;;5109196;28;20198;-88
2023/04/12 00:51:21;;;;;;;47.90;7.40;;;16.10;59.10;;;;;;5094419;28;20595;-87
2023/04/12 00:53:48;;;;;;;23.07;5.53;;;16.10;59.10;;;;;;5090697;28;20212;-89
2023/04/12 00:56:15;;;;;;;28.83;6.30;;;16.10;59.20;;;;;;5097976;28;20290;-88
2023/04/12 00:58:42;;;;;;;23.60;5.47;;;16.10;59.20;;;;;;5106530;28;20209;-89
2023/04/12 01:01:09;;;;;;;25.13;5.70;;;16.10;59.20;;;;;;5107788;28;20236;-88
2023/04/12 01:03:41;;;;;;;25.87;5.83;;;16.10;59.20;;;;;;5101863;28;20198;-89
2023/04/12 01:06:16;;;;;;;30.57;6.33;;;16.10;59.20;;;;;;5098684;28;20291;-91
2023/04/12 01:08:54;;;;;;;39.30;7.10;;;16.10;59.20;;;;;;5105304;28;20205;-88
2023/04/12 01:11:31;;;;;;;30.80;6.33;;;16.10;59.20;;;;;;5095631;28;20191;-89
2023/04/12 01:14:07;;;;;;;32.60;6.63;;;16.10;59.30;;;;;;5111175;27;20202;-88
2023/04/12 01:16:43;;;;;;;27.13;6.23;;;16.10;59.30;;;;;;5100773;28;20310;-90
2023/04/12 01:19:29;;;;;;;16.07;5.10;;;16.00;59.20;;;;;;5105669;28;20208;-89
2023/04/12 01:22:12;;;;;;;27.70;5.60;;;16.10;59.30;;;;;;5098072;28;20233;-93
2023/04/12 01:24:51;;;;;;;23.87;5.30;;;16.00;59.20;;;;;;5097749;28;20643;-92
2023/04/12 01:27:32;;;;;;;54.13;7.53;;;16.00;59.20;;;;;;5091739;28;20209;-88
2023/04/12 01:30:03;;;;;;;24.63;5.30;;;16.00;59.20;;;;;;5107883;28;20208;-91
2023/04/12 01:32:31;;;;;;;32.77;6.13;;;16.00;59.20;;;;;;5103432;28;20852;-92
2023/04/12 01:35:01;;;;;;;35.83;6.03;;;16.00;59.20;;;;;;5110131;28;20202;-92
2023/04/12 01:37:29;;;;;;;25.13;5.83;;;16.00;59.30;;;;;;5093635;28;20752;-92
2023/04/12 01:39:56;;;;;;;19.63;4.87;;;16.00;59.30;;;;;;5105283;28;20207;-93
2023/04/12 01:42:23;;;;;;;27.43;5.67;;;16.00;59.30;;;;;;5097100;28;20303;-92
2023/04/12 01:44:51;;;;;;;30.57;5.80;;;16.00;59.30;;;;;;5103104;28;20276;-92
2023/04/12 01:47:18;;;;;;;42.17;6.60;;;16.00;59.30;;;;;;5107362;27;20210;-93
2023/04/12 01:49:59;;;;;;;31.93;5.77;;;16.00;59.30;;;;;;5099112;28;20208;-94
2023/04/12 01:52:32;;;;;;;25.17;5.23;;;16.00;59.30;;;;;;5104826;28;20212;-92
2023/04/12 01:55:02;;;;;;;17.67;5.17;;;16.00;59.30;;;;;;5109042;27;20200;-95
2023/04/12 01:57:30;;;;;;;26.83;5.83;;;15.90;59.30;;;;;;5107735;28;20198;-92
2023/04/12 01:59:59;;;;;;;20.50;5.00;;;16.00;59.30;;;;;;5108622;28;20231;-91
2023/04/12 02:02:26;;;;;;;24.40;5.30;;;15.90;59.30;;;;;;5107149;28;20250;-91
2023/04/12 02:04:55;;;;;;;24.87;5.97;;;15.90;59.30;;;;;;5091365;28;20213;-92
2023/04/12 02:07:22;;;;;;;44.57;7.07;;;16.00;59.30;;;;;;5095242;28;20214;-93
2023/04/12 02:09:50;;;;;;;25.77;6.10;;;15.90;59.30;;;;;;5102983;28;20198;-89
2023/04/12 02:12:17;;;;;;;21.97;4.67;;;16.00;59.40;;;;;;5108352;28;20210;-90
2023/04/12 02:14:43;;;;;;;24.80;5.50;;;15.90;59.30;;;;;;5090825;28;20200;-90
2023/04/12 02:17:13;;;;;;;26.43;5.30;;;15.90;59.30;;;;;;5097126;28;20202;-91
2023/04/12 02:19:40;;;;;;;22.30;5.50;;;15.90;59.30;;;;;;5107735;28;20223;-91
2023/04/12 02:22:07;;;;;;;23.67;5.13;;;15.90;59.30;;;;;;5094010;28;20235;-89
2023/04/12 02:24:34;;;;;;;35.67;6.50;;;15.90;59.30;;;;;;5098625;28;20700;-90
2023/04/12 02:27:01;;;;;;;32.60;5.73;;;15.80;59.20;;;;;;5104797;28;20221;-90
2023/04/12 02:29:28;;;;;;;38.33;6.47;;;15.90;59.30;;;;;;5108334;28;20558;-90
2023/04/12 02:31:55;;;;;;;42.80;6.97;;;15.90;59.30;;;;;;5098991;28;20283;-90
2023/04/12 02:34:23;;;;;;;26.87;6.00;;;15.90;59.30;;;;;;5092264;28;20673;-91
2023/04/12 02:36:50;;;;;;;27.93;6.00;;;15.90;59.30;;;;;;5096217;28;20199;-93
2023/04/12 02:39:18;;;;;;;40.77;7.20;;;15.90;59.30;;;;;;5104073;28;20641;-90
2023/04/12 02:41:45;;;;;;;32.43;6.00;;;15.90;59.30;;;;;;5089086;28;20693;-90
2023/04/12 02:44:12;;;;;;;27.07;5.50;;;15.90;59.30;;;;;;5099960;28;20251;-92
2023/04/12 02:46:39;;;;;;;36.20;6.53;;;15.90;59.30;;;;;;5108985;28;20210;-90
2023/04/12 02:49:06;;;;;;;23.47;5.30;;;15.90;59.30;;;;;;5105918;28;20206;-90
2023/04/12 02:51:34;;;;;;;30.97;5.43;;;15.90;59.40;;;;;;5090780;28;20240;-92
2023/04/12 02:54:01;;;;;;;24.53;5.33;;;15.90;59.40;;;;;;5089111;28;20215;-91
2023/04/12 02:56:30;;;;;;;30.87;6.13;;;15.90;59.40;;;;;;5102152;28;20747;-93
2023/04/12 02:58:57;;;;;;;32.13;5.93;;;15.80;59.30;;;;;;5096922;28;20250;-91
2023/04/12 03:01:24;;;;;;;23.00;5.50;;;15.90;59.40;;;;;;5108553;28;20333;-93
2023/04/12 03:03:51;;;;;;;26.93;5.67;;;15.90;59.40;;;;;;5100481;28;20210;-93
2023/04/12 03:06:18;;;;;;;26.70;5.30;;;15.90;59.40;;;;;;5102179;28;20656;-93
2023/04/12 03:08:49;;;;;;;25.17;5.23;;;15.90;59.40;;;;;;5109384;28;20209;-91
2023/04/12 03:11:16;;;;;;;24.10;4.90;;;15.90;59.40;;;;;;5106797;28;20230;-93
2023/04/12 03:13:42;;;;;;;22.47;5.30;;;15.90;59.40;;;;;;5088826;28;20202;-91
2023/04/12 03:16:28;;;;;;;31.20;5.90;;;15.90;59.40;;;;;;5095134;28;20329;-90
2023/04/12 03:18:55;;;;;;;24.63;6.03;;;15.80;59.40;;;;;;5091402;28;20587;-90
2023/04/12 03:21:22;;;;;;;36.80;6.50;;;15.90;59.40;;;;;;5094843;28;20757;-88
2023/04/12 03:23:51;;;;;;;26.53;5.30;;;15.90;59.40;;;;;;5107770;28;20209;-88
2023/04/12 03:26:19;;;;;;;25.97;5.93;;;15.80;59.30;;;;;;5108523;28;20204;-89
2023/04/12 03:28:46;;;;;;;28.40;5.73;;;15.90;59.50;;;;;;5094655;28;20214;-88
2023/04/12 03:31:14;;;;;;;24.43;5.63;;;15.90;59.40;;;;;;5087129;28;20237;-90
2023/04/12 03:33:41;;;;;;;28.60;5.63;;;15.80;59.40;;;;;;5106436;28;20204;-89
2023/04/12 03:36:09;;;;;;;35.30;6.23;;;15.90;59.40;;;;;;5103798;28;20211;-90
2023/04/12 03:38:36;;;;;;;46.37;7.07;;;15.80;59.40;;;;;;5095934;28;20203;-89
2023/04/12 03:41:05;;;;;;;26.33;5.53;;;15.90;59.50;;;;;;5108324;28;20232;-88
2023/04/12 03:43:34;;;;;;;33.70;6.03;;;15.80;59.40;;;;;;5100042;28;20209;-89
2023/04/12 03:46:01;;;;;;;23.27;5.13;;;15.80;59.40;;;;;;5088256;28;20210;-89
2023/04/12 03:48:28;;;;;;;25.53;5.67;;;15.80;59.40;;;;;;5087174;28;20284;-88
2023/04/12 03:50:58;;;;;;;40.10;6.80;;;15.90;59.50;;;;;;5087201;28;20203;-89
2023/04/12 03:53:25;;;;;;;30.63;5.50;;;15.80;59.40;;;;;;5103666;28;20198;-89
2023/04/12 03:55:53;;;;;;;28.13;6.00;;;15.90;59.50;;;;;;5088296;28;20645;-86
2023/04/12 03:58:21;;;;;;;31.33;6.00;;;15.90;59.50;;;;;;5090347;28;20236;-89
2023/04/12 04:00:48;;;;;;;21.03;5.27;;;15.80;59.40;;;;;;5089222;28;20204;-89
2023/04/12 04:03:16;;;;;;;31.53;5.77;;;15.80;59.40;;;;;;5098320;28;20199;-90
2023/04/12 04:05:43;;;;;;;34.90;5.93;;;15.90;59.50;;;;;;5095578;28;20208;-89
2023/04/12 04:08:10;;;;;;;24.60;5.63;;;15.80;59.40;;;;;;5101127;28;20542;-89
2023/04/12 04:10:37;;;;;;;41.17;6.87;;;15.80;59.40;;;;;;5093095;28;20284;-89
2023/04/12 04:13:04;;;;;;;24.30;5.27;;;15.90;59.50;;;;;;5103741;27;21161;-88
2023/04/12 04:15:32;;;;;;;17.87;5.10;;;15.80;59.40;;;;;;5100304;28;20301;-92
2023/04/12 04:17:59;;;;;;;51.17;7.17;;;15.80;59.40;;;;;;5109821;28;20234;-88
2023/04/12 04:20:26;;;;;;;27.63;6.13;;;15.80;59.50;;;;;;5110687;28;20285;-89
2023/04/12 04:22:53;;;;;;;23.83;5.13;;;15.80;59.40;;;;;;5108781;28;20224;-89
2023/04/12 04:25:20;;;;;;;28.90;6.23;;;15.80;59.40;;;;;;5102359;28;20565;-88
2023/04/12 04:27:48;;;;;;;24.00;5.60;;;15.80;59.40;;;;;;5111307;28;20209;-89
2023/04/12 04:30:15;;;;;;;32.73;6.23;;;15.80;59.50;;;;;;5095059;28;20204;-89
2023/04/12 04:32:44;;;;;;;26.53;5.53;;;15.80;60.00;;;;;;5107448;28;20300;-90
2023/04/12 04:35:11;;;;;;;29.23;5.87;;;15.80;59.40;;;;;;5111258;28;20204;-89
2023/04/12 04:37:39;;;;;;;23.93;5.43;;;15.80;59.40;;;;;;5100383;28;20204;-90
2023/04/12 04:40:08;;;;;;;26.80;5.77;;;15.80;59.40;;;;;;5091549;28;20202;-90
2023/04/12 04:42:36;;;;;;;28.67;6.00;;;15.80;59.50;;;;;;5104894;28;20257;-90
2023/04/12 04:45:04;;;;;;;30.93;6.03;;;15.80;59.50;;;;;;5108014;28;20263;-91
2023/04/12 04:47:31;;;;;;;26.40;5.80;;;15.80;59.40;;;;;;5108963;28;20740;-91
2023/04/12 04:50:00;;;;;;;28.27;5.47;;;15.80;59.50;;;;;;5108958;28;20239;-91
2023/04/12 04:52:27;;;;;;;45.77;7.20;;;15.80;59.40;;;;;;5093070;28;20201;-90
2023/04/12 04:54:56;;;;;;;33.23;6.10;;;15.80;59.50;;;;;;5100093;28;20264;-88
2023/04/12 04:57:23;;;;;;;38.73;6.87;;;15.80;59.40;;;;;;5104673;28;20310;-89
2023/04/12 04:59:50;;;;;;;26.37;5.77;;;15.80;59.40;;;;;;5102395;27;20199;-88
2023/04/12 05:02:17;;;;;;;28.73;5.87;;;15.80;59.40;;;;;;5094882;28;20213;-88
2023/04/12 05:04:44;;;;;;;27.43;5.63;;;15.80;59.40;;;;;;5096588;28;20194;-87
2023/04/12 05:07:13;;;;;;;26.33;6.07;;;15.80;59.40;;;;;;5111941;28;20203;-87
2023/04/12 05:09:40;;;;;;;36.93;6.60;;;15.70;59.30;;;;;;5100407;28;20232;-88
2023/04/12 05:12:07;;;;;;;29.67;5.43;;;15.80;59.50;;;;;;5095497;28;20211;-89
2023/04/12 05:14:34;;;;;;;39.43;6.37;;;15.80;59.40;;;;;;5111095;28;20208;-89
2023/04/12 05:17:01;;;;;;;38.77;6.67;;;15.70;59.30;;;;;;5097729;28;20644;-90
2023/04/12 05:19:28;;;;;;;28.87;5.57;;;15.70;59.30;;;;;;5110412;28;20232;-89
2023/04/12 05:21:55;;;;;;;43.20;6.67;;;15.80;59.40;;;;;;5108300;28;20274;-88
2023/04/12 05:24:23;;;;;;;27.70;6.00;;;15.70;59.40;;;;;;5108996;28;20688;-94
2023/04/12 05:26:50;;;;;;;29.33;5.67;;;15.70;59.30;;;;;;5107871;28;20201;-88
2023/04/12 05:29:17;;;;;;;28.83;5.80;;;15.80;59.50;;;;;;5096018;28;20210;-88
2023/04/12 05:31:44;;;;;;;62.40;8.67;;;15.70;59.30;;;;;;5090131;28;20205;-88
2023/04/12 05:34:12;;;;;;;32.33;6.23;;;15.70;59.30;;;;;;5104479;28;20194;-87
2023/04/12 05:36:39;;;;;;;36.37;6.13;;;15.70;59.30;;;;;;5102896;28;20210;-89
2023/04/12 05:39:06;;;;;;;33.17;6.10;;;15.70;59.30;;;;;;5094256;28;20205;-87
2023/04/12 05:41:34;;;;;;;38.67;6.90;;;15.70;59.90;;;;;;5101299;28;20202;-88
2023/04/12 05:44:02;;;;;;;23.67;5.23;;;15.70;59.30;;;;;;5101862;28;20195;-89
2023/04/12 05:46:29;;;;;;;33.47;6.33;;;15.70;59.40;;;;;;5111190;28;20210;-90
2023/04/12 05:48:56;;;;;;;37.67;6.70;;;15.70;59.30;;;;;;5114345;28;20295;-90
2023/04/12 05:51:23;;;;;;;32.80;6.30;;;15.60;59.30;;;;;;5112475;28;20233;-88
2023/04/12 05:53:50;;;;;;;33.47;6.13;;;15.70;59.40;;;;;;5104232;28;20198;-88
2023/04/12 05:56:17;;;;;;;28.40;5.50;;;15.70;59.40;;;;;;5090572;28;20305;-87
2023/04/12 05:58:46;;;;;;;39.87;6.33;;;15.70;59.40;;;;;;5107439;28;20566;-85
2023/04/12 06:01:15;;;;;;;23.33;5.57;;;15.70;59.40;;;;;;5108191;28;20226;-87
2023/04/12 06:03:42;;;;;;;67.23;8.93;;;15.70;60.00;;;;;;5096792;28;20226;-92
2023/04/12 06:06:09;;;;;;;29.10;6.50;;;15.70;59.40;;;;;;5088186;28;20295;-89
2023/04/12 06:08:37;;;;;;;32.07;6.47;;;15.70;59.40;;;;;;5100385;28;20206;-90
2023/04/12 06:11:04;;;;;;;34.03;6.40;;;15.60;59.30;;;;;;5095504;28;20208;-92
2023/04/12 06:13:31;;;;;;;33.07;6.13;;;15.60;59.30;;;;;;5109036;28;20250;-92
2023/04/12 06:16:00;;;;;;;46.60;7.40;;;15.60;59.30;;;;;;5107403;28;20304;-89
2023/04/12 06:18:27;;;;;;;37.73;7.53;;;15.70;59.40;;;;;;5099341;28;20232;-93
2023/04/12 06:20:54;;;;;;;50.73;8.27;;;15.60;59.30;;;;;;5097553;28;20700;-92
2023/04/12 06:23:21;;;;;;;41.30;7.37;;;15.70;59.40;;;;;;5090465;28;20241;-94
2023/04/12 06:25:49;;;;;;;42.33;7.00;;;15.60;59.40;;;;;;5090619;28;20194;-93
2023/04/12 06:28:16;;;;;;;54.17;8.80;;;15.60;59.40;;;;;;5090507;28;20202;-90
2023/04/12 06:30:43;;;;;;;36.00;7.60;;;15.60;59.40;;;;;;5090427;28;20207;-90
2023/04/12 06:33:12;;;;;;;33.90;6.77;;;15.60;59.40;;;;;;5090173;28;20209;-91
2023/04/12 06:35:39;;;;;;;36.43;6.40;;;15.70;59.50;;;;;;5090475;28;20212;-94
2023/04/12 06:38:12;;;;;;;30.10;6.30;;;15.60;59.40;;;;;;5090159;28;20195;-88
2023/04/12 06:40:38;;;;;;;51.17;8.23;;;15.60;59.40;;;;;;5089375;28;20904;-90
2023/04/12 06:43:05;;;;;;;30.50;6.50;;;15.60;59.50;;;;;;5107964;28;20218;-90
2023/04/12 06:45:32;;;;;;;62.27;8.83;;;15.70;59.50;;;;;;5109215;28;20198;-93
2023/04/12 06:47:59;;;;;;;35.13;6.97;;;15.60;59.50;;;;;;5105830;28;20782;-92
2023/04/12 06:50:27;;;;;;;23.07;5.53;;;15.70;59.50;;;;;;5117874;28;20190;-91
2023/04/12 06:52:54;;;;;;;29.20;6.20;;;15.60;59.50;;;;;;5112056;28;20210;-87
2023/04/12 06:55:21;;;;;;;32.83;6.90;;;15.50;59.50;;;;;;5104169;28;20201;-88
2023/04/12 06:57:50;;;;;;;39.03;7.37;;;15.60;59.50;;;;;;5096529;28;20206;-88
2023/04/12 07:00:18;;;;;;;37.10;6.80;;;15.60;59.50;;;;;;5110630;28;20368;-89
2023/04/12 07:02:45;;;;;;;28.07;5.93;;;15.60;59.50;;;;;;5094116;28;20229;-89
2023/04/12 07:05:12;;;;;;;39.77;7.47;;;15.50;59.50;;;;;;5092319;28;20198;-88
2023/04/12 07:07:40;;;;;;;35.17;6.87;;;15.60;59.50;;;;;;5091116;28;20296;-93
2023/04/12 07:10:08;;;;;;;41.93;7.17;;;15.60;59.50;;;;;;5089246;28;20210;-88
2023/04/12 07:12:35;;;;;;;39.17;6.83;;;15.60;59.50;;;;;;5097146;28;20621;-88
2023/04/12 07:15:02;;;;;;;46.97;7.60;;;15.60;59.50;;;;;;5088290;28;20207;-87
2023/04/12 07:17:29;;;;;;;37.03;6.63;;;15.60;59.50;;;;;;5099351;28;20250;-92
2023/04/12 07:19:56;;;;;;;26.97;6.33;;;15.60;59.50;;;;;;5100519;28;20686;-95
2023/04/12 07:22:23;;;;;;;31.23;6.90;;;15.60;59.50;;;;;;5107082;28;20225;-91
2023/04/12 07:24:54;;;;;;;38.23;6.93;;;15.60;59.50;;;;;;5107849;28;20203;-89
2023/04/12 07:27:21;;;;;;;21.63;6.13;;;15.60;60.20;;;;;;5090360;28;20206;-91
2023/04/12 07:29:48;;;;;;;35.03;6.73;;;15.60;59.50;;;;;;5091211;28;20203;-87
2023/04/12 07:32:18;;;;;;;28.43;6.17;;;15.70;59.60;;;;;;5090315;28;20215;-95
2023/04/12 07:34:44;;;;;;;33.17;6.53;;;15.60;59.50;;;;;;5090724;28;20203;-91
2023/04/12 07:37:11;;;;;;;51.40;7.90;;;15.60;59.50;;;;;;5090358;28;20213;-88
2023/04/12 07:39:39;;;;;;;36.67;6.43;;;15.60;59.50;;;;;;5090528;28;20205;-95
2023/04/12 07:42:07;;;;;;;27.33;6.40;;;15.60;59.50;;;;;;5110028;28;20248;-94
2023/04/12 07:44:35;;;;;;;29.13;6.40;;;15.60;59.50;;;;;;5117226;28;20209;-88
2023/04/12 07:47:02;;;;;;;39.30;7.23;;;15.60;59.50;;;;;;5116251;28;20209;-88
2023/04/12 07:49:31;;;;;;;28.90;5.93;;;15.60;59.50;;;;;;5114156;28;20193;-91
2023/04/12 07:51:58;;;;;;;29.50;6.17;;;15.60;59.50;;;;;;5114809;28;20230;-89
2023/04/12 07:54:29;;;;;;;29.20;5.87;;;15.60;59.50;;;;;;5114608;28;20203;-89
2023/04/12 07:57:00;;;;;;;28.00;5.80;;;15.60;59.50;;;;;;5096877;27;20816;-89
2023/04/12 07:59:29;;;;;;;28.93;5.87;;;15.60;59.50;;;;;;5094445;28;20202;-89
2023/04/12 08:01:56;;;;;;;37.13;6.60;;;15.60;59.50;;;;;;5093540;28;20235;-89
2023/04/12 08:04:23;;;;;;;26.20;6.40;;;15.60;59.60;;;;;;5094905;28;20239;-88
2023/04/12 08:06:49;;;;;;;26.73;6.30;;;15.60;59.50;;;;;;5099741;28;20216;-90
2023/04/12 08:09:16;;;;;;;29.50;6.27;;;15.60;59.50;;;;;;5107144;28;20198;-88
2023/04/12 08:11:43;;;;;;;27.60;6.37;;;15.60;59.50;;;;;;5111572;28;20206;-88
2023/04/12 08:14:10;;;;;;;31.37;6.30;;;15.60;59.50;;;;;;5109426;28;20202;-88
2023/04/12 08:16:38;;;;;;;30.73;6.53;;;15.60;59.50;;;;;;5109189;28;20301;-90
2023/04/12 08:19:06;;;;;;;25.07;5.27;;;15.60;59.50;;;;;;5112299;28;20210;-89
2023/04/12 08:21:33;;;;;;;27.40;6.03;;;15.60;59.50;;;;;;5112508;28;20556;-93
2023/04/12 08:24:03;;;;;;;23.60;6.07;;;15.60;59.60;;;;;;5102738;28;20326;-94
2023/04/12 08:26:30;;;;;;;35.43;6.57;;;15.60;59.50;;;;;;5105501;28;20201;-94
2023/04/12 08:28:57;;;;;;;26.13;5.50;;;15.60;59.60;;;;;;5113419;28;20290;-89
2023/04/12 08:31:25;;;;;;;29.27;6.33;;;15.60;59.50;;;;;;5112716;28;20200;-92
2023/04/12 08:33:55;;;;;;;27.47;6.17;;;15.60;59.60;;;;;;5112250;28;20646;-92
2023/04/12 08:36:22;;;;;;;43.70;7.13;;;15.60;59.50;;;;;;5109710;28;20190;-90
2023/04/12 08:38:51;;;;;;;32.87;6.47;;;15.60;59.60;;;;;;5112549;28;20773;-91
2023/04/12 08:41:18;;;;;;;22.17;5.20;;;15.60;59.60;;;;;;5124106;28;20209;-91
2023/04/12 08:43:46;;;;;;;22.83;5.07;;;15.60;59.60;;;;;;5114371;28;20236;-90
2023/04/12 08:46:15;;;;;;;47.43;7.50;;;15.60;59.60;;;;;;5112078;28;20213;-93
2023/04/12 08:48:44;;;;;;;26.13;5.40;;;15.60;59.60;;;;;;5107132;28;20203;-92
2023/04/12 08:51:14;;;;;;;16.73;5.27;;;15.60;59.60;;;;;;5092415;28;20204;-91
2023/04/12 08:53:41;;;;;;;22.80;5.70;;;15.60;59.70;;;;;;5098999;28;20198;-91
2023/04/12 08:56:11;;;;;;;26.27;5.40;;;15.60;59.70;;;;;;5100199;28;20302;-91
2023/04/12 08:58:40;;;;;;;33.17;6.73;;;15.60;59.70;;;;;;5101494;28;20710;-92
2023/04/12 09:01:12;;;;;;;23.37;5.77;;;15.60;59.70;;;;;;5091856;28;20203;-91
2023/04/12 09:03:39;;;;;;;31.67;6.33;;;15.70;59.80;;;;;;5095103;28;20219;-93
2023/04/12 09:06:07;;;;;;;29.53;5.93;;;15.70;59.80;;;;;;5092079;28;20225;-93
2023/04/12 09:08:35;;;;;;;30.57;6.57;;;15.70;59.80;;;;;;5091966;28;20205;-93
2023/04/12 09:11:02;;;;;;;30.43;6.07;;;15.70;59.80;;;;;;5092170;28;20195;-91
2023/04/12 09:13:34;;;;;;;40.00;7.13;;;15.70;59.90;;;;;;5092100;28;20580;-91
2023/04/12 09:16:01;;;;;;;26.07;6.53;;;15.70;59.90;;;;;;5104417;28;20233;-90
2023/04/12 09:18:28;;;;;;;29.37;6.47;;;15.70;59.90;;;;;;5109536;28;20198;-92
2023/04/12 09:21:06;;;;;;;49.00;7.63;;;15.70;59.90;;;;;;5117370;28;20203;-88
2023/04/12 09:23:36;;;;;;;38.77;8.07;;;15.80;60.00;;;;;;5107098;28;20223;-88
2023/04/12 09:26:05;;;;;;;23.03;6.43;;;15.80;60.00;;;;;;5096706;28;20260;-92
2023/04/12 09:28:32;;;;;;;24.43;6.20;;;15.80;59.90;;;;;;5092209;28;20210;-92
2023/04/12 09:31:00;;;;;;;25.37;6.43;;;15.80;59.90;;;;;;5098580;28;20207;-90
2023/04/12 09:33:34;;;;;;;37.53;7.27;;;15.90;60.00;;;;;;5092570;28;20662;-92
2023/04/12 09:36:02;;;;;;;33.70;6.70;;;15.90;60.10;;;;;;5109833;27;20316;-91
2023/04/12 09:38:29;;;;;;;25.43;6.53;;;15.90;60.00;;;;;;5107756;28;20202;-91
2023/04/12 09:41:14;;;;;;;46.27;7.50;;;16.00;60.20;;;;;;5102711;28;20208;-94
2023/04/12 09:43:41;;;;;;;49.00;8.20;;;16.00;60.20;;;;;;5106373;28;20695;-89
2023/04/12 09:46:12;;;;;;;47.97;8.47;;;16.00;60.10;;;;;;5092433;28;20212;-93
2023/04/12 09:48:42;;;;;;;34.30;7.07;;;16.00;60.10;;;;;;5094002;28;20199;-95
2023/04/12 09:51:09;;;;;;;32.73;7.37;;;16.00;60.10;;;;;;5112307;28;20682;-89
2023/04/12 09:53:40;;;;;;;25.40;6.27;;;16.10;60.20;;;;;;5105360;28;20208;-89
2023/04/12 09:56:10;;;;;;;25.77;6.20;;;16.10;60.20;;;;;;5107129;28;20598;-94
2023/04/12 09:58:38;;;;;;;38.10;7.40;;;16.20;60.10;;;;;;5101639;28;20216;-91
2023/04/12 10:01:09;;;;;;;29.00;6.33;;;16.20;60.10;;;;;;5096624;28;20191;-89
2023/04/12 10:03:37;;;;;;;30.97;6.87;;;16.10;60.00;;;;;;5096165;28;20271;-91
2023/04/12 10:06:05;;;;;;;28.73;6.50;;;16.20;60.00;;;;;;5093484;28;20536;-89
2023/04/12 10:08:32;;;;;;;26.03;6.23;;;16.20;60.00;;;;;;5090157;28;20219;-89
2023/04/12 10:11:01;;;;;;;39.57;6.67;;;16.20;60.00;;;;;;5090263;28;20210;-90
2023/04/12 10:13:32;;;;;;;22.53;6.03;;;16.20;60.00;;;;;;5091185;28;20202;-88
2023/04/12 10:16:01;;;;;;;32.23;6.13;;;16.30;60.00;;;;;;5092269;28;20262;-88
2023/04/12 10:18:29;;;;;;;18.10;5.00;;;16.20;59.90;;;;;;5092568;28;20275;-88
2023/04/12 10:20:59;;;;;;;26.90;6.10;;;16.30;60.00;;;;;;5092292;28;20291;-90
2023/04/12 10:23:27;;;;;;;33.90;6.60;;;16.30;60.00;;;;;;5092062;28;20612;-87
2023/04/12 10:25:56;;;;;;;23.60;5.93;;;16.20;59.80;;;;;;5093808;28;20197;-89
2023/04/12 10:28:23;;;;;;;29.10;6.37;;;16.40;60.80;;;;;;5093253;28;20201;-88
2023/04/12 10:30:53;;;;;;;41.90;7.57;;;16.30;59.90;;;;;;5092325;28;20203;-90
2023/04/12 10:33:26;;;;;;;20.80;5.10;;;16.30;59.90;;;;;;5092544;28;20248;-88
2023/04/12 10:35:56;;;;;;;20.70;5.40;;;16.30;59.90;;;;;;5091507;28;20702;-88
2023/04/12 10:38:26;;;;;;;28.07;6.20;;;16.30;59.90;;;;;;5103882;28;20216;-88
2023/04/12 10:41:13;;;;;;;32.33;6.03;;;16.30;59.90;;;;;;5093612;28;20247;-88
2023/04/12 10:43:42;;;;;;;32.20;6.13;;;16.30;60.00;;;;;;5100751;28;20224;-89
2023/04/12 10:46:52;;;;;;;23.33;5.60;;;16.30;59.90;;;;;;5109261;28;20210;-89
2023/04/12 10:49:19;;;;;;;25.60;5.63;;;16.30;60.00;;;;;;5109654;28;20218;-90
2023/04/12 10:52:19;;;;;;;33.03;6.27;;;16.30;59.90;;;;;;5109808;28;20207;-87
2023/04/12 10:54:46;;;;;;;22.60;5.53;;;16.30;60.00;;;;;;5102019;28;20210;-86
2023/04/12 10:57:43;;;;;;;26.37;5.40;;;16.30;60.10;;;;;;5089864;28;20639;-86
2023/04/12 11:00:11;;;;;;;16.00;4.17;;;16.30;60.10;;;;;;5071662;28;20248;-86
2023/04/12 11:03:10;;;;;;;23.27;5.50;;;16.30;60.10;;;;;;5102987;28;20209;-85
2023/04/12 11:06:00;;;;;;;25.20;5.63;;;16.30;59.80;;;;;;5109040;27;20800;-86
2023/04/12 11:08:29;;;;;;;22.53;5.03;;;16.40;60.10;;;;;;5109158;28;20205;-85
2023/04/12 11:11:02;;;;;;;45.93;6.90;;;16.40;60.10;;;;;;5109208;28;20213;-82
2023/04/12 11:13:34;;;;;;;23.27;5.10;;;16.40;59.60;;;;;;5109112;28;20276;-83
2023/04/12 11:16:02;;;;;;;32.90;6.10;;;16.40;59.30;;;;;;5107582;28;20218;-87
2023/04/12 11:18:33;;;;;;;50.40;6.90;;;16.40;59.00;;;;;;5105855;28;20195;-86
2023/04/12 11:21:02;;;;;;;55.97;7.97;;;16.40;58.60;;;;;;5097577;28;20202;-87
2023/04/12 11:23:30;;;;;;;27.97;5.17;;;16.40;58.40;;;;;;5097887;28;20224;-90
2023/04/12 11:25:57;;;;;;;25.37;4.93;;;16.50;58.40;;;;;;5101472;28;20206;-91
2023/04/12 11:28:24;;;;;;;29.00;5.33;;;16.40;58.60;;;;;;5105893;28;20202;-94
2023/04/12 11:30:53;;;;;;;23.40;5.27;;;16.40;58.70;;;;;;5101758;28;20206;-93
2023/04/12 11:33:35;;;;;;;28.53;5.47;;;16.30;58.70;;;;;;5096441;28;20206;-91
2023/04/12 11:36:06;;;;;;;31.23;5.50;;;16.30;58.80;;;;;;5103273;28;20209;-89
2023/04/12 11:38:36;;;;;;;24.57;5.40;;;16.30;59.00;;;;;;5100627;28;20644;-90
2023/04/12 11:41:04;;;;;;;26.10;5.30;;;16.30;59.10;;;;;;5092973;27;20248;-88
2023/04/12 11:43:32;;;;;;;28.33;5.40;;;16.30;59.20;;;;;;5091102;28;20287;-88
2023/04/12 11:45:59;;;;;;;21.03;5.00;;;16.30;59.20;;;;;;5088309;28;20211;-88
2023/04/12 11:48:27;;;;;;;29.67;5.57;;;16.30;59.20;;;;;;5100132;28;20205;-88
2023/04/12 11:50:58;;;;;;;26.77;5.43;;;16.40;59.30;;;;;;5091026;28;20204;-88
2023/04/12 11:53:28;;;;;;;28.73;5.00;;;16.30;59.30;;;;;;5099298;28;20199;-89
2023/04/12 11:55:56;;;;;;;30.13;5.70;;;16.30;59.40;;;;;;5101157;28;20255;-87
2023/04/12 11:58:24;;;;;;;23.60;4.70;;;16.30;59.80;;;;;;5094361;28;20213;-87
2023/04/12 12:00:51;;;;;;;23.63;5.30;;;16.40;59.50;;;;;;5097160;28;20217;-89
2023/04/12 12:03:18;;;;;;;30.20;5.67;;;16.40;59.50;;;;;;5102641;28;20663;-89
2023/04/12 12:05:46;;;;;;;44.00;6.33;;;16.40;59.60;;;;;;5094275;28;20226;-90
2023/04/12 12:08:14;;;;;;;38.33;6.07;;;16.40;59.60;;;;;;5093165;28;20242;-89
2023/04/12 12:10:41;;;;;;;38.50;6.23;;;16.40;59.50;;;;;;5088498;28;20609;-85
2023/04/12 12:13:12;;;;;;;25.93;4.87;;;16.50;59.40;;;;;;5091168;28;20288;-90
2023/04/12 12:15:39;;;;;;;23.27;5.17;;;16.40;59.10;;;;;;5089393;28;20252;-90
2023/04/12 12:18:08;;;;;;;23.10;4.93;;;16.50;59.30;;;;;;5087189;28;20196;-88
2023/04/12 12:20:41;;;;;;;27.73;5.40;;;16.40;59.30;;;;;;5086966;28;20234;-88
2023/04/12 12:23:08;;;;;;;24.67;5.10;;;16.50;59.30;;;;;;5087328;28;20296;-90
2023/04/12 12:25:36;;;;;;;21.63;5.23;;;16.50;59.30;;;;;;5102768;28;20235;-92
2023/04/12 12:28:04;;;;;;;39.80;6.23;;;16.50;59.30;;;;;;5108168;28;20288;-93
2023/04/12 12:30:31;;;;;;;29.33;5.83;;;16.50;59.40;;;;;;5097224;28;20239;-92
2023/04/12 12:32:58;;;;;;;23.53;4.93;;;16.50;59.30;;;;;;5094251;28;20616;-89
2023/04/12 12:35:27;;;;;;;18.90;4.40;;;16.50;59.40;;;;;;5095095;28;20193;-91
2023/04/12 12:37:57;;;;;;;15.10;4.77;;;16.50;59.30;;;;;;5096829;28;20205;-89
2023/04/12 12:40:32;;;;;;;18.13;4.50;;;16.50;59.30;;;;;;5096818;28;20241;-87
2023/04/12 12:43:00;;;;;;;19.00;4.80;;;16.50;59.40;;;;;;5093753;28;20297;-88
2023/04/12 12:45:29;;;;;;;46.63;6.90;;;16.50;59.40;;;;;;5092079;28;20233;-89